Time,TemperatureF,DewpointF,PressureIn,WindDirection,WindDirectionDegrees,WindSpeedMPH,WindSpeedGustMPH,Humidity,HourlyPrecipIn,Conditions,Clouds,dailyrainin,SoftwareType,DateUTC
2013-02-11 00:00:00,20.8,14.7,30.28,SSE,155,0.0,1.0,77,0.00,,---,0.26,VWS V14.00,2013-02-11 05:00:00,
2013-02-11 00:05:00,21.0,14.0,30.28,SSE,155,0.0,0.0,74,0.00,,---,0.00,VWS V14.00,2013-02-11 05:05:00,
2013-02-11 00:10:00,21.3,14.6,30.28,SSE,155,0.0,0.0,75,0.00,,---,0.00,VWS V14.00,2013-02-11 05:10:00,
2013-02-11 00:15:00,21.3,14.6,30.28,SSE,155,0.0,0.0,75,0.00,,---,0.00,VWS V14.00,2013-02-11 05:15:00,
2013-02-11 00:20:00,21.3,14.6,30.28,SSE,155,0.0,1.0,75,0.00,,---,0.00,VWS V14.00,2013-02-11 05:20:00,
2013-02-11 00:25:00,21.3,14.6,30.28,SSE,157,0.0,1.0,75,0.00,,---,0.00,VWS V14.00,2013-02-11 05:25:00,
2013-02-11 00:30:00,21.3,14.3,30.28,SSE,155,0.0,1.0,74,0.00,,---,0.00,VWS V14.00,2013-02-11 05:30:00,
2013-02-11 00:35:00,21.6,14.0,30.27,SSE,155,0.0,0.0,72,0.00,,---,0.00,VWS V14.00,2013-02-11 05:35:00,
2013-02-11 00:40:00,21.9,13.6,30.27,SSE,155,0.0,0.0,70,0.00,,---,0.00,VWS V14.00,2013-02-11 05:40:00,
2013-02-11 00:45:00,22.1,13.8,30.27,SSE,155,0.0,0.0,70,0.00,,---,0.00,VWS V14.00,2013-02-11 05:45:00,
2013-02-11 00:50:00,22.1,13.8,30.27,SSE,155,0.0,0.0,70,0.00,,---,0.00,VWS V14.00,2013-02-11 05:50:00,
2013-02-11 00:55:00,21.9,14.0,30.27,SSE,155,0.0,1.0,71,0.00,,---,0.00,VWS V14.00,2013-02-11 05:55:00,
2013-02-11 01:00:00,21.8,13.9,30.27,SSE,155,0.0,1.0,71,0.00,,---,0.00,VWS V14.00,2013-02-11 06:00:00,
2013-02-11 01:05:00,21.4,14.7,30.26,SSE,155,0.0,0.0,75,0.00,,---,0.00,VWS V14.00,2013-02-11 06:05:00,
2013-02-11 01:10:00,21.0,14.3,30.26,SSE,155,0.0,0.0,75,0.00,,---,0.00,VWS V14.00,2013-02-11 06:10:00,
2013-02-11 01:15:00,20.6,14.2,30.26,SSE,155,0.0,0.0,76,0.00,,---,0.00,VWS V14.00,2013-02-11 06:15:00,
2013-02-11 01:20:00,20.3,14.3,30.26,SSE,155,0.0,1.0,77,0.00,,---,0.00,VWS V14.00,2013-02-11 06:20:00,
2013-02-11 01:25:00,20.2,14.7,30.26,SSE,155,0.0,1.0,79,0.00,,---,0.00,VWS V14.00,2013-02-11 06:25:00,
2013-02-11 01:31:00,20.3,15.1,30.26,SSE,155,0.0,1.0,80,0.00,,---,0.00,VWS V14.00,2013-02-11 06:31:00,
2013-02-11 01:36:00,20.6,16.0,30.25,SSE,155,0.0,1.0,82,0.00,,---,0.00,VWS V14.00,2013-02-11 06:36:00,
2013-02-11 01:41:00,20.8,16.2,30.25,SSE,155,0.0,1.0,82,0.00,,---,0.00,VWS V14.00,2013-02-11 06:41:00,
2013-02-11 01:46:00,20.8,16.5,30.25,SSE,155,0.0,1.0,83,0.00,,---,0.00,VWS V14.00,2013-02-11 06:46:00,
2013-02-11 01:51:00,20.8,16.7,30.24,SSE,155,0.0,1.0,84,0.00,,---,0.00,VWS V14.00,2013-02-11 06:51:00,
2013-02-11 01:56:00,20.3,16.2,30.24,SSE,155,0.0,1.0,84,0.00,,---,0.00,VWS V14.00,2013-02-11 06:56:00,
2013-02-11 02:01:00,20.0,16.2,30.24,SSE,155,0.0,1.0,85,0.00,,---,0.00,VWS V14.00,2013-02-11 07:01:00,
2013-02-11 02:06:00,19.9,16.1,30.24,SSE,155,0.0,0.0,85,0.00,,---,0.00,VWS V14.00,2013-02-11 07:06:00,
2013-02-11 02:11:00,19.9,16.4,30.24,SSE,155,0.0,0.0,86,0.00,,---,0.00,VWS V14.00,2013-02-11 07:11:00,
2013-02-11 02:16:00,19.9,16.1,30.23,SSE,154,0.0,0.0,85,0.00,,---,0.00,VWS V14.00,2013-02-11 07:16:00,
2013-02-11 02:21:00,20.0,16.5,30.23,SSE,155,0.0,0.0,86,0.00,,---,0.00,VWS V14.00,2013-02-11 07:21:00,
2013-02-11 02:26:00,19.7,16.2,30.23,SSE,155,0.0,0.0,86,0.00,,---,0.00,VWS V14.00,2013-02-11 07:26:00,
2013-02-11 02:31:00,19.7,16.2,30.22,SSE,155,0.0,0.0,86,0.00,,---,0.00,VWS V14.00,2013-02-11 07:31:00,
2013-02-11 02:36:00,19.7,16.2,30.22,SSE,155,0.0,0.0,86,0.00,,---,0.00,VWS V14.00,2013-02-11 07:36:00,
2013-02-11 02:41:00,19.7,16.5,30.22,SSE,158,0.0,1.0,87,0.00,,---,0.00,VWS V14.00,2013-02-11 07:41:00,
2013-02-11 02:46:00,19.7,16.5,30.22,SSE,158,0.0,1.0,87,0.00,,---,0.00,VWS V14.00,2013-02-11 07:46:00,
2013-02-11 02:51:00,19.9,16.7,30.22,SSE,158,0.0,1.0,87,0.00,,---,0.00,VWS V14.00,2013-02-11 07:51:00,
2013-02-11 02:56:00,19.9,16.4,30.22,SSE,158,0.0,1.0,86,0.00,,---,0.00,VWS V14.00,2013-02-11 07:56:00,
2013-02-11 03:01:00,20.2,16.4,30.22,SSE,158,0.0,1.0,85,0.00,,---,0.00,VWS V14.00,2013-02-11 08:01:00,
2013-02-11 03:06:00,20.3,16.2,30.22,SSE,158,0.0,0.0,84,0.00,,---,0.00,VWS V14.00,2013-02-11 08:06:00,
2013-02-11 03:11:00,20.5,16.4,30.22,SSE,158,0.0,0.0,84,0.00,,---,0.00,VWS V14.00,2013-02-11 08:11:00,
2013-02-11 03:16:00,20.6,16.5,30.22,SSE,158,0.0,0.0,84,0.00,,---,0.00,VWS V14.00,2013-02-11 08:16:00,
2013-02-11 03:21:00,20.6,16.3,30.22,SSE,158,0.0,0.0,83,0.00,,---,0.00,VWS V14.00,2013-02-11 08:21:00,
2013-02-11 03:26:00,20.8,16.5,30.22,SSE,158,0.0,0.0,83,0.00,,---,0.00,VWS V14.00,2013-02-11 08:26:00,
2013-02-11 03:31:00,21.1,16.8,30.20,SSE,160,0.0,1.0,83,0.00,,---,0.00,VWS V14.00,2013-02-11 08:31:00,
2013-02-11 03:36:00,21.3,16.7,30.20,SSE,160,0.0,0.0,82,0.00,,---,0.00,VWS V14.00,2013-02-11 08:36:00,
2013-02-11 03:41:00,21.6,17.2,30.20,SSE,164,0.0,1.0,83,0.00,,---,0.00,VWS V14.00,2013-02-11 08:41:00,
2013-02-11 03:46:00,21.9,17.3,30.20,SSW,212,0.0,2.0,82,0.00,,---,0.00,VWS V14.00,2013-02-11 08:46:00,
2013-02-11 03:51:00,22.1,17.2,30.20,South,176,0.0,2.0,81,0.00,,---,0.00,VWS V14.00,2013-02-11 08:51:00,
2013-02-11 03:56:00,22.4,17.2,30.20,South,176,0.0,2.0,80,0.00,,---,0.00,VWS V14.00,2013-02-11 08:56:00,
2013-02-11 04:01:00,22.5,17.6,30.19,South,182,0.0,2.0,81,0.00,,---,0.00,VWS V14.00,2013-02-11 09:01:00,
2013-02-11 04:06:00,22.7,17.8,30.19,South,182,0.0,0.0,81,0.00,,---,0.00,VWS V14.00,2013-02-11 09:06:00,
2013-02-11 04:11:00,22.9,18.0,30.19,South,182,0.0,0.0,81,0.00,,---,0.00,VWS V14.00,2013-02-11 09:11:00,
2013-02-11 04:16:00,22.9,17.7,30.18,South,182,0.0,0.0,80,0.00,,---,0.00,VWS V14.00,2013-02-11 09:16:00,
2013-02-11 04:21:00,23.0,18.0,30.18,South,182,0.0,0.0,81,0.00,,---,0.00,VWS V14.00,2013-02-11 09:21:00,
2013-02-11 04:26:00,23.2,18.2,30.18,South,182,0.0,1.0,81,0.00,,---,0.00,VWS V14.00,2013-02-11 09:26:00,
2013-02-11 04:31:00,23.2,18.5,30.18,South,182,0.0,1.0,82,0.00,,---,0.00,VWS V14.00,2013-02-11 09:31:00,
2013-02-11 04:36:00,23.2,18.8,30.18,South,182,0.0,0.0,83,0.00,,---,0.00,VWS V14.00,2013-02-11 09:36:00,
2013-02-11 04:41:00,23.2,18.8,30.18,South,182,0.0,0.0,83,0.00,,---,0.00,VWS V14.00,2013-02-11 09:41:00,
2013-02-11 04:46:00,23.3,18.9,30.17,South,182,0.0,0.0,83,0.00,,---,0.00,VWS V14.00,2013-02-11 09:46:00,
2013-02-11 04:51:00,23.5,19.4,30.17,South,182,0.0,0.0,84,0.00,,---,0.00,VWS V14.00,2013-02-11 09:51:00,
2013-02-11 04:56:00,23.5,19.4,30.17,South,182,0.0,0.0,84,0.00,,---,0.00,VWS V14.00,2013-02-11 09:56:00,
2013-02-11 05:01:00,23.3,19.2,30.17,South,182,0.0,1.0,84,0.00,,---,0.00,VWS V14.00,2013-02-11 10:01:00,
2013-02-11 05:06:00,23.3,19.2,30.17,South,182,0.0,0.0,84,0.00,,---,0.00,VWS V14.00,2013-02-11 10:06:00,
2013-02-11 05:11:00,23.3,19.2,30.17,South,182,0.0,0.0,84,0.00,,---,0.00,VWS V14.00,2013-02-11 10:11:00,
2013-02-11 05:16:00,23.3,19.2,30.17,South,182,0.0,0.0,84,0.00,,---,0.00,VWS V14.00,2013-02-11 10:16:00,
2013-02-11 05:21:00,23.3,19.5,30.17,South,182,0.0,0.0,85,0.00,,---,0.00,VWS V14.00,2013-02-11 10:21:00,
2013-02-11 05:27:00,23.3,19.5,30.17,South,182,0.0,0.0,85,0.00,,---,0.00,VWS V14.00,2013-02-11 10:27:00,
2013-02-11 05:32:00,23.3,19.5,30.17,South,182,0.0,0.0,85,0.00,,---,0.00,VWS V14.00,2013-02-11 10:32:00,
2013-02-11 05:37:00,23.5,19.7,30.17,South,182,0.0,1.0,85,0.00,,---,0.00,VWS V14.00,2013-02-11 10:37:00,
2013-02-11 05:42:00,23.5,19.7,30.17,South,182,0.0,1.0,85,0.00,,---,0.00,VWS V14.00,2013-02-11 10:42:00,
2013-02-11 05:47:00,23.5,19.9,30.17,South,182,0.0,1.0,86,0.00,,---,0.00,VWS V14.00,2013-02-11 10:47:00,
2013-02-11 05:52:00,23.6,20.0,30.17,South,182,0.0,1.0,86,0.00,,---,0.00,VWS V14.00,2013-02-11 10:52:00,
2013-02-11 05:57:00,23.6,20.0,30.17,South,182,0.0,1.0,86,0.00,,---,0.00,VWS V14.00,2013-02-11 10:57:00,
2013-02-11 06:02:00,23.8,20.2,30.16,South,182,0.0,0.0,86,0.00,,---,0.00,VWS V14.00,2013-02-11 11:02:00,
2013-02-11 06:07:00,23.8,20.2,30.16,South,182,0.0,0.0,86,0.00,,---,0.00,VWS V14.00,2013-02-11 11:07:00,
2013-02-11 06:12:00,23.9,20.3,30.16,South,182,0.0,1.0,86,0.00,,---,0.00,VWS V14.00,2013-02-11 11:12:00,
2013-02-11 06:17:00,24.1,20.0,30.14,South,182,0.0,1.0,84,0.00,,---,0.00,VWS V14.00,2013-02-11 11:17:00,
2013-02-11 06:22:00,24.2,19.8,30.14,South,182,0.0,1.0,83,0.00,,---,0.00,VWS V14.00,2013-02-11 11:22:00,
2013-02-11 06:27:00,24.4,20.0,30.14,South,182,0.0,1.0,83,0.00,,---,0.00,VWS V14.00,2013-02-11 11:27:00,
2013-02-11 06:32:00,24.7,20.8,30.14,South,182,0.0,0.0,85,0.00,,---,0.00,VWS V14.00,2013-02-11 11:32:00,
2013-02-11 06:37:00,24.8,20.9,30.14,South,182,0.0,0.0,85,0.00,,---,0.00,VWS V14.00,2013-02-11 11:37:00,
2013-02-11 06:42:00,24.8,20.9,30.14,South,182,0.0,0.0,85,0.00,,---,0.00,VWS V14.00,2013-02-11 11:42:00,
2013-02-11 06:47:00,25.0,21.7,30.14,South,182,0.0,0.0,87,0.00,,---,0.00,VWS V14.00,2013-02-11 11:47:00,
2013-02-11 06:52:00,25.0,21.7,30.14,South,182,0.0,0.0,87,0.00,,---,0.00,VWS V14.00,2013-02-11 11:52:00,
2013-02-11 06:57:00,25.1,22.0,30.14,South,182,0.0,0.0,88,0.00,,---,0.00,VWS V14.00,2013-02-11 11:57:00,
2013-02-11 07:02:00,25.1,22.0,30.14,South,182,0.0,0.0,88,0.00,,---,0.00,VWS V14.00,2013-02-11 12:02:00,
2013-02-11 07:07:00,25.3,22.2,30.14,South,182,0.0,0.0,88,0.00,,---,0.00,VWS V14.00,2013-02-11 12:07:00,
2013-02-11 07:12:00,25.4,22.4,30.14,South,182,0.0,0.0,88,0.00,,---,0.00,VWS V14.00,2013-02-11 12:12:00,
2013-02-11 07:17:00,25.4,22.4,30.14,South,182,0.0,0.0,88,0.00,,---,0.00,VWS V14.00,2013-02-11 12:17:00,
2013-02-11 07:22:00,25.6,22.5,30.14,South,182,0.0,0.0,88,0.00,,---,0.00,VWS V14.00,2013-02-11 12:22:00,
2013-02-11 07:27:00,25.6,22.8,30.14,South,184,0.0,0.0,89,0.00,,---,0.00,VWS V14.00,2013-02-11 12:27:00,
2013-02-11 07:32:00,25.8,22.7,30.12,South,184,0.0,0.0,88,0.00,,---,0.00,VWS V14.00,2013-02-11 12:32:00,
2013-02-11 07:37:00,26.0,22.9,30.12,South,184,0.0,0.0,88,0.00,,---,0.00,VWS V14.00,2013-02-11 12:37:00,
2013-02-11 07:42:00,26.1,22.5,30.12,South,184,0.0,0.0,86,0.00,,---,0.00,VWS V14.00,2013-02-11 12:42:00,
2013-02-11 07:47:00,26.4,22.8,30.11,South,184,0.0,1.0,86,0.00,,---,0.00,VWS V14.00,2013-02-11 12:47:00,
2013-02-11 07:52:00,26.7,22.8,30.11,South,184,0.0,1.0,85,0.00,,---,0.00,VWS V14.00,2013-02-11 12:52:00,
2013-02-11 07:57:00,26.9,23.0,30.11,South,184,0.0,1.0,85,0.00,,---,0.00,VWS V14.00,2013-02-11 12:57:00,
2013-02-11 08:02:00,27.0,23.1,30.10,South,184,0.0,0.0,85,0.00,,---,0.00,VWS V14.00,2013-02-11 13:02:00,
2013-02-11 08:07:00,27.2,23.6,30.10,South,182,0.0,0.0,86,0.00,,---,0.00,VWS V14.00,2013-02-11 13:07:00,
2013-02-11 08:13:00,27.2,23.6,30.10,South,182,1.0,1.0,86,0.00,,---,0.00,VWS V14.00,2013-02-11 13:13:00,
2013-02-11 08:18:00,27.3,23.7,30.10,South,182,0.0,1.0,86,0.00,,---,0.00,VWS V14.00,2013-02-11 13:18:00,
2013-02-11 08:23:00,27.5,24.1,30.10,South,182,0.0,1.0,87,0.00,,---,0.00,VWS V14.00,2013-02-11 13:23:00,
2013-02-11 08:28:00,27.6,24.5,30.10,South,182,0.0,1.0,88,0.00,,---,0.00,VWS V14.00,2013-02-11 13:28:00,
2013-02-11 08:33:00,27.8,24.7,30.09,South,182,0.0,0.0,88,0.00,,---,0.00,VWS V14.00,2013-02-11 13:33:00,
2013-02-11 08:38:00,27.9,25.1,30.09,South,182,0.0,0.0,89,0.00,,---,0.00,VWS V14.00,2013-02-11 13:38:00,
2013-02-11 08:43:00,28.2,25.6,30.09,South,182,0.0,0.0,90,0.00,,---,0.00,VWS V14.00,2013-02-11 13:43:00,
2013-02-11 08:48:00,28.5,26.2,30.07,South,182,0.0,1.0,91,0.00,,---,0.00,VWS V14.00,2013-02-11 13:48:00,
2013-02-11 08:53:00,28.8,26.8,30.07,SSE,168,0.0,2.0,92,0.00,,---,0.00,VWS V14.00,2013-02-11 13:53:00,
2013-02-11 08:58:00,29.1,27.3,30.07,South,186,0.0,2.0,93,0.00,,---,0.00,VWS V14.00,2013-02-11 13:58:00,
2013-02-11 09:03:00,29.4,27.6,30.06,SSE,152,0.0,0.0,93,0.00,,---,0.00,VWS V14.00,2013-02-11 14:03:00,
2013-02-11 09:08:00,29.5,27.7,30.06,SSE,154,0.0,2.0,93,0.00,,---,0.00,VWS V14.00,2013-02-11 14:08:00,
2013-02-11 09:13:00,29.7,28.2,30.06,SSE,148,1.0,2.0,94,0.00,,---,0.00,VWS V14.00,2013-02-11 14:13:00,
2013-02-11 09:18:00,30.0,28.5,30.04,South,188,0.0,2.0,94,0.00,,---,0.00,VWS V14.00,2013-02-11 14:18:00,
2013-02-11 09:23:00,30.1,28.6,30.04,SSE,150,0.0,2.0,94,0.00,,---,0.00,VWS V14.00,2013-02-11 14:23:00,
2013-02-11 09:28:00,30.3,28.8,30.04,SSE,150,0.0,2.0,94,0.00,,---,0.00,VWS V14.00,2013-02-11 14:28:00,
2013-02-11 09:33:00,30.6,29.1,30.03,SSE,147,0.0,2.0,94,0.00,,---,0.00,VWS V14.00,2013-02-11 14:33:00,
2013-02-11 09:38:00,30.9,29.6,30.03,South,175,0.0,2.0,95,0.00,,---,0.00,VWS V14.00,2013-02-11 14:38:00,
2013-02-11 09:43:00,31.2,29.9,30.03,SE,144,0.0,2.0,95,0.00,,---,0.00,VWS V14.00,2013-02-11 14:43:00,
2013-02-11 09:48:00,31.5,30.2,30.00,SE,133,1.0,2.0,95,0.00,,---,0.00,VWS V14.00,2013-02-11 14:48:00,
2013-02-11 09:53:00,31.6,30.3,30.00,ESE,112,2.0,2.0,95,0.00,,---,0.00,VWS V14.00,2013-02-11 14:53:00,
2013-02-11 09:58:00,31.8,30.8,30.00,ESE,123,0.0,3.0,96,0.00,,---,0.00,VWS V14.00,2013-02-11 14:58:00,
2013-02-11 10:03:00,31.9,30.9,29.98,SE,128,0.0,2.0,96,0.00,,---,0.00,VWS V14.00,2013-02-11 15:03:00,
2013-02-11 10:08:00,32.1,31.1,29.98,SE,138,0.0,3.0,96,0.00,,---,0.00,VWS V14.00,2013-02-11 15:08:00,
2013-02-11 10:13:00,32.2,31.2,29.98,South,176,1.0,3.0,96,0.00,,---,0.00,VWS V14.00,2013-02-11 15:13:00,
2013-02-11 10:18:00,32.4,31.6,29.98,South,178,0.0,3.0,97,0.00,,---,0.00,VWS V14.00,2013-02-11 15:18:00,
2013-02-11 10:23:00,32.5,31.7,29.98,SSE,150,0.0,3.0,97,0.00,,---,0.00,VWS V14.00,2013-02-11 15:23:00,
2013-02-11 10:28:00,32.7,31.9,29.98,SSE,147,0.0,3.0,97,0.00,,---,0.00,VWS V14.00,2013-02-11 15:28:00,
2013-02-11 10:33:00,32.8,32.3,29.97,SSE,157,0.0,0.0,98,0.00,,---,0.00,VWS V14.00,2013-02-11 15:33:00,
2013-02-11 10:38:00,32.9,32.4,29.97,SSE,157,0.0,2.0,98,0.01,,---,0.01,VWS V14.00,2013-02-11 15:38:00,
2013-02-11 10:43:00,33.2,32.7,29.97,SSW,200,2.0,2.0,98,0.01,,---,0.01,VWS V14.00,2013-02-11 15:43:00,
2013-02-11 10:48:00,33.4,32.9,29.96,SSW,198,0.0,3.0,98,0.01,,---,0.01,VWS V14.00,2013-02-11 15:48:00,
2013-02-11 10:53:00,33.5,33.0,29.96,South,185,1.0,3.0,98,0.01,,---,0.01,VWS V14.00,2013-02-11 15:53:00,
2013-02-11 10:58:00,33.5,33.0,29.96,SSE,165,0.0,3.0,98,0.01,,---,0.01,VWS V14.00,2013-02-11 15:58:00,
2013-02-11 11:03:00,33.7,33.2,29.94,SE,131,0.0,0.0,98,0.01,,---,0.01,VWS V14.00,2013-02-11 16:03:00,
2013-02-11 11:08:00,33.8,33.3,29.94,SE,133,0.0,1.0,98,0.01,,---,0.01,VWS V14.00,2013-02-11 16:08:00,
2013-02-11 11:13:00,34.0,33.5,29.94,SSE,167,2.0,2.0,98,0.01,,---,0.01,VWS V14.00,2013-02-11 16:13:00,
2013-02-11 11:18:00,34.3,34.0,29.92,SSE,154,0.0,8.0,99,0.01,,---,0.01,VWS V14.00,2013-02-11 16:18:00,
2013-02-11 11:23:00,34.6,34.3,29.92,SSE,154,0.0,8.0,99,0.01,,---,0.01,VWS V14.00,2013-02-11 16:23:00,
2013-02-11 11:28:00,34.9,34.7,29.92,SSE,155,0.0,8.0,99,0.01,,---,0.01,VWS V14.00,2013-02-11 16:28:00,
2013-02-11 11:33:00,35.2,35.0,29.90,South,191,2.0,2.0,99,0.01,,---,0.01,VWS V14.00,2013-02-11 16:33:00,
2013-02-11 11:38:00,35.6,35.6,29.90,ESE,106,0.0,3.0,100,0.01,,---,0.01,VWS V14.00,2013-02-11 16:38:00,
2013-02-11 11:43:00,35.8,35.8,29.90,ESE,109,0.0,3.0,100,0.01,,---,0.01,VWS V14.00,2013-02-11 16:43:00,
2013-02-11 11:48:00,36.0,36.0,29.88,SE,130,0.0,3.0,100,0.01,,---,0.01,VWS V14.00,2013-02-11 16:48:00,
2013-02-11 11:53:00,36.5,36.5,29.88,SSE,150,0.0,3.0,100,0.01,,---,0.01,VWS V14.00,2013-02-11 16:53:00,
2013-02-11 11:58:00,36.8,36.8,29.88,SE,137,0.0,3.0,100,0.02,,---,0.02,VWS V14.00,2013-02-11 16:58:00,
2013-02-11 12:03:00,37.0,37.0,29.87,ESE,116,0.0,1.0,100,0.01,,---,0.02,VWS V14.00,2013-02-11 17:03:00,
2013-02-11 12:08:00,37.2,37.2,29.87,SE,124,0.0,2.0,100,0.02,,---,0.03,VWS V14.00,2013-02-11 17:08:00,
2013-02-11 12:13:00,37.5,37.5,29.87,SSE,161,1.0,3.0,100,0.03,,---,0.04,VWS V14.00,2013-02-11 17:13:00,
2013-02-11 12:19:00,37.8,37.8,29.85,ESE,103,0.0,3.0,100,0.04,,---,0.05,VWS V14.00,2013-02-11 17:19:00,
2013-02-11 12:24:00,37.9,37.9,29.85,SSE,147,0.0,3.0,100,0.05,,---,0.06,VWS V14.00,2013-02-11 17:24:00,
2013-02-11 12:29:00,38.2,38.2,29.85,SE,138,0.0,3.0,100,0.05,,---,0.06,VWS V14.00,2013-02-11 17:29:00,
2013-02-11 12:34:00,38.3,38.3,29.84,ESE,102,0.0,2.0,100,0.06,,---,0.07,VWS V14.00,2013-02-11 17:34:00,
2013-02-11 12:39:00,38.5,38.5,29.84,SSE,148,0.0,2.0,100,0.07,,---,0.08,VWS V14.00,2013-02-11 17:39:00,
2013-02-11 12:44:00,38.8,38.8,29.84,ESE,107,1.0,3.0,100,0.08,,---,0.09,VWS V14.00,2013-02-11 17:44:00,
2013-02-11 12:49:00,39.1,39.1,29.82,ESE,110,0.0,3.0,100,0.09,,---,0.10,VWS V14.00,2013-02-11 17:49:00,
2013-02-11 12:54:00,39.5,39.5,29.82,East,93,1.0,3.0,100,0.10,,---,0.11,VWS V14.00,2013-02-11 17:54:00,
2013-02-11 12:59:00,39.6,39.6,29.82,East,99,0.0,3.0,100,0.11,,---,0.12,VWS V14.00,2013-02-11 17:59:00,
2013-02-11 13:04:00,39.9,39.9,29.81,East,100,0.0,1.0,100,0.11,,---,0.13,VWS V14.00,2013-02-11 18:04:00,
2013-02-11 13:09:00,40.2,40.2,29.81,ESE,120,0.0,2.0,100,0.11,,---,0.13,VWS V14.00,2013-02-11 18:09:00,
2013-02-11 13:14:00,40.5,40.5,29.81,SE,145,0.0,2.0,100,0.12,,---,0.14,VWS V14.00,2013-02-11 18:14:00,
2013-02-11 13:19:00,40.8,40.8,29.79,ESE,110,0.0,2.0,100,0.12,,---,0.14,VWS V14.00,2013-02-11 18:19:00,
2013-02-11 13:24:00,41.1,41.1,29.79,SE,126,0.0,2.0,100,0.13,,---,0.15,VWS V14.00,2013-02-11 18:24:00,
2013-02-11 13:29:00,41.5,41.5,29.79,SSE,160,0.0,3.0,100,0.14,,---,0.16,VWS V14.00,2013-02-11 18:29:00,
2013-02-11 13:34:00,41.6,41.6,29.78,SE,138,2.0,7.0,100,0.09,,---,0.16,VWS V14.00,2013-02-11 18:34:00,
2013-02-11 13:39:00,41.9,41.9,29.78,SE,144,1.0,7.0,100,0.10,,---,0.17,VWS V14.00,2013-02-11 18:39:00,
2013-02-11 13:44:00,42.1,42.1,29.78,ENE,68,0.0,10.0,100,0.10,,---,0.17,VWS V14.00,2013-02-11 18:44:00,
2013-02-11 13:49:00,42.2,42.2,29.76,NE,49,0.0,10.0,100,0.11,,---,0.18,VWS V14.00,2013-02-11 18:49:00,
2013-02-11 13:54:00,42.5,42.5,29.76,ESE,102,1.0,10.0,100,0.11,,---,0.18,VWS V14.00,2013-02-11 18:54:00,
2013-02-11 13:59:00,42.6,42.6,29.76,ESE,116,0.0,10.0,100,0.11,,---,0.18,VWS V14.00,2013-02-11 18:59:00,
2013-02-11 14:04:00,42.9,42.9,29.75,ESE,114,1.0,3.0,100,0.07,,---,0.19,VWS V14.00,2013-02-11 19:04:00,
2013-02-11 14:09:00,43.1,43.1,29.75,ESE,112,0.0,12.0,100,0.07,,---,0.19,VWS V14.00,2013-02-11 19:09:00,
2013-02-11 14:14:00,43.1,43.1,29.75,East,95,0.0,12.0,100,0.07,,---,0.19,VWS V14.00,2013-02-11 19:14:00,
2013-02-11 14:19:00,43.1,43.1,29.74,East,79,0.0,12.0,100,0.08,,---,0.20,VWS V14.00,2013-02-11 19:19:00,
2013-02-11 14:24:00,43.2,43.2,29.74,SE,126,0.0,12.0,100,0.08,,---,0.20,VWS V14.00,2013-02-11 19:24:00,
2013-02-11 14:29:00,43.3,43.3,29.74,SE,137,2.0,12.0,100,0.08,,---,0.20,VWS V14.00,2013-02-11 19:29:00,
2013-02-11 14:34:00,43.5,43.5,29.72,East,100,2.0,3.0,100,0.04,,---,0.20,VWS V14.00,2013-02-11 19:34:00,
2013-02-11 14:39:00,43.6,43.6,29.72,ESE,123,3.0,5.0,100,0.04,,---,0.20,VWS V14.00,2013-02-11 19:39:00,
2013-02-11 14:44:00,43.6,43.6,29.72,SSE,155,0.0,5.0,100,0.04,,---,0.20,VWS V14.00,2013-02-11 19:44:00,
2013-02-11 14:49:00,43.5,43.5,29.72,NE,52,0.0,6.0,100,0.05,,---,0.21,VWS V14.00,2013-02-11 19:49:00,
2013-02-11 14:54:00,43.3,43.3,29.72,SE,124,0.0,6.0,100,0.05,,---,0.21,VWS V14.00,2013-02-11 19:54:00,
2013-02-11 14:59:00,43.3,43.3,29.72,SW,224,0.0,6.0,100,0.05,,---,0.21,VWS V14.00,2013-02-11 19:59:00,
2013-02-11 15:04:00,43.2,43.2,29.72,South,171,0.0,2.0,100,0.03,,---,0.21,VWS V14.00,2013-02-11 20:04:00,
2013-02-11 15:09:00,43.2,43.2,29.72,South,189,0.0,2.0,100,0.03,,---,0.21,VWS V14.00,2013-02-11 20:09:00,
2013-02-11 15:14:00,43.5,43.5,29.72,SE,131,0.0,2.0,100,0.03,,---,0.21,VWS V14.00,2013-02-11 20:14:00,
2013-02-11 15:19:00,43.5,43.5,29.71,ESE,110,1.0,2.0,100,0.03,,---,0.21,VWS V14.00,2013-02-11 20:19:00,
2013-02-11 15:24:00,43.5,43.5,29.71,South,171,0.0,2.0,100,0.03,,---,0.21,VWS V14.00,2013-02-11 20:24:00,
2013-02-11 15:29:00,43.6,43.6,29.71,ESE,119,0.0,4.0,100,0.03,,---,0.21,VWS V14.00,2013-02-11 20:29:00,
2013-02-11 15:34:00,43.5,43.5,29.70,SE,133,0.0,1.0,100,0.01,,---,0.21,VWS V14.00,2013-02-11 20:34:00,
2013-02-11 15:39:00,43.5,43.5,29.70,SE,134,0.0,1.0,100,0.01,,---,0.21,VWS V14.00,2013-02-11 20:39:00,
2013-02-11 15:44:00,43.5,43.5,29.70,SE,140,0.0,1.0,100,0.02,,---,0.22,VWS V14.00,2013-02-11 20:44:00,
2013-02-11 15:49:00,43.3,43.3,29.69,SSE,162,0.0,1.0,100,0.02,,---,0.22,VWS V14.00,2013-02-11 20:49:00,
2013-02-11 15:54:00,43.3,43.3,29.69,SE,130,1.0,2.0,100,0.02,,---,0.22,VWS V14.00,2013-02-11 20:54:00,
2013-02-11 15:59:00,43.3,43.3,29.69,SE,137,0.0,3.0,100,0.02,,---,0.22,VWS V14.00,2013-02-11 20:59:00,
2013-02-11 16:04:00,43.5,43.5,29.69,SE,141,0.0,1.0,100,0.01,,---,0.22,VWS V14.00,2013-02-11 21:04:00,
2013-02-11 16:09:00,43.5,43.5,29.69,ESE,103,0.0,1.0,100,0.01,,---,0.22,VWS V14.00,2013-02-11 21:09:00,
2013-02-11 16:14:00,43.6,43.6,29.69,ESE,103,0.0,1.0,100,0.01,,---,0.22,VWS V14.00,2013-02-11 21:14:00,
2013-02-11 16:19:00,43.5,43.5,29.67,ESE,103,0.0,1.0,100,0.01,,---,0.22,VWS V14.00,2013-02-11 21:19:00,
2013-02-11 16:24:00,43.5,43.5,29.67,SE,141,0.0,1.0,100,0.01,,---,0.22,VWS V14.00,2013-02-11 21:24:00,
2013-02-11 16:29:00,43.6,43.6,29.67,SSW,205,0.0,2.0,100,0.01,,---,0.22,VWS V14.00,2013-02-11 21:29:00,
2013-02-11 16:35:00,43.6,43.6,29.66,SSW,205,0.0,1.0,100,0.01,,---,0.22,VWS V14.00,2013-02-11 21:35:00,
2013-02-11 16:40:00,43.5,43.5,29.66,SSW,205,0.0,1.0,100,0.01,,---,0.22,VWS V14.00,2013-02-11 21:40:00,
2013-02-11 16:45:00,43.5,43.5,29.66,East,80,0.0,2.0,100,0.01,,---,0.22,VWS V14.00,2013-02-11 21:45:00,
2013-02-11 16:50:00,43.5,43.5,29.65,ESE,109,0.0,2.0,100,0.01,,---,0.22,VWS V14.00,2013-02-11 21:50:00,
2013-02-11 16:55:00,43.5,43.5,29.65,SE,126,0.0,2.0,100,0.01,,---,0.22,VWS V14.00,2013-02-11 21:55:00,
2013-02-11 17:00:00,43.5,43.5,29.65,ENE,68,0.0,2.0,100,0.01,,---,0.22,VWS V14.00,2013-02-11 22:00:00,
2013-02-11 17:05:00,43.8,43.8,29.65,SSE,158,0.0,7.0,100,0.00,,---,0.22,VWS V14.00,2013-02-11 22:05:00,
2013-02-11 17:10:00,43.6,43.6,29.65,SSE,162,0.0,7.0,100,0.00,,---,0.22,VWS V14.00,2013-02-11 22:10:00,
2013-02-11 17:15:00,43.5,43.5,29.65,SSE,162,0.0,7.0,100,0.00,,---,0.22,VWS V14.00,2013-02-11 22:15:00,
2013-02-11 17:20:00,43.5,43.5,29.64,SSE,164,0.0,7.0,100,0.00,,---,0.22,VWS V14.00,2013-02-11 22:20:00,
2013-02-11 17:25:00,43.5,43.5,29.64,SSE,168,0.0,7.0,100,0.00,,---,0.22,VWS V14.00,2013-02-11 22:25:00,
2013-02-11 17:30:00,43.3,43.3,29.64,SSE,164,0.0,7.0,100,0.00,,---,0.22,VWS V14.00,2013-02-11 22:30:00,
2013-02-11 17:35:00,43.3,43.3,29.63,ESE,104,0.0,1.0,100,0.00,,---,0.22,VWS V14.00,2013-02-11 22:35:00,
2013-02-11 17:40:00,43.5,43.5,29.63,SE,143,0.0,2.0,100,0.00,,---,0.22,VWS V14.00,2013-02-11 22:40:00,
2013-02-11 17:45:00,43.5,43.5,29.63,ENE,76,0.0,2.0,100,0.00,,---,0.22,VWS V14.00,2013-02-11 22:45:00,
2013-02-11 17:50:00,43.3,43.3,29.63,ENE,75,1.0,2.0,100,0.00,,---,0.22,VWS V14.00,2013-02-11 22:50:00,
2013-02-11 17:55:00,43.3,43.3,29.63,ENE,73,0.0,2.0,100,0.00,,---,0.22,VWS V14.00,2013-02-11 22:55:00,
2013-02-11 18:00:00,43.3,43.3,29.63,East,79,0.0,2.0,100,0.00,,---,0.22,VWS V14.00,2013-02-11 23:00:00,
2013-02-11 18:05:00,43.3,43.3,29.62,ENE,78,0.0,0.0,100,0.00,,---,0.22,VWS V14.00,2013-02-11 23:05:00,
2013-02-11 18:10:00,43.5,43.5,29.62,East,79,0.0,0.0,100,0.00,,---,0.22,VWS V14.00,2013-02-11 23:10:00,
2013-02-11 18:15:00,43.5,43.5,29.62,ENE,78,0.0,0.0,100,0.00,,---,0.22,VWS V14.00,2013-02-11 23:15:00,
2013-02-11 18:20:00,43.3,43.3,29.62,ENE,78,0.0,0.0,100,0.00,,---,0.22,VWS V14.00,2013-02-11 23:20:00,
2013-02-11 18:25:00,43.3,43.3,29.62,ENE,78,0.0,1.0,100,0.00,,---,0.22,VWS V14.00,2013-02-11 23:25:00,
2013-02-11 18:30:00,43.3,43.3,29.62,ENE,78,0.0,1.0,100,0.00,,---,0.22,VWS V14.00,2013-02-11 23:30:00,
2013-02-11 18:35:00,43.5,43.5,29.63,East,80,0.0,2.0,100,0.00,,---,0.22,VWS V14.00,2013-02-11 23:35:00,
2013-02-11 18:40:00,43.6,43.6,29.63,East,80,0.0,2.0,100,0.00,,---,0.22,VWS V14.00,2013-02-11 23:40:00,
2013-02-11 18:45:00,43.6,43.6,29.63,South,175,0.0,2.0,100,0.00,,---,0.22,VWS V14.00,2013-02-11 23:45:00,
2013-02-11 18:50:00,43.5,43.5,29.62,South,175,0.0,2.0,100,0.00,,---,0.22,VWS V14.00,2013-02-11 23:50:00,
2013-02-11 18:55:00,43.5,43.5,29.62,South,175,0.0,2.0,100,0.00,,---,0.22,VWS V14.00,2013-02-11 23:55:00,
2013-02-11 19:00:00,43.6,43.6,29.62,South,175,0.0,2.0,100,0.00,,---,0.22,VWS V14.00,2013-02-12 00:00:00,
2013-02-11 19:05:00,43.8,43.8,29.61,South,175,0.0,1.0,100,0.00,,---,0.22,VWS V14.00,2013-02-12 00:05:00,
2013-02-11 19:10:00,43.8,43.8,29.61,SSE,165,0.0,2.0,100,0.00,,---,0.22,VWS V14.00,2013-02-12 00:10:00,
2013-02-11 19:15:00,43.8,43.8,29.61,South,169,0.0,2.0,100,0.00,,---,0.22,VWS V14.00,2013-02-12 00:15:00,
2013-02-11 19:20:00,43.9,43.9,29.61,South,181,0.0,2.0,100,0.00,,---,0.22,VWS V14.00,2013-02-12 00:20:00,
2013-02-11 19:25:00,43.9,43.9,29.61,SSW,199,0.0,2.0,100,0.00,,---,0.22,VWS V14.00,2013-02-12 00:25:00,
2013-02-11 19:30:00,44.2,44.2,29.61,SSW,195,0.0,2.0,100,0.00,,---,0.22,VWS V14.00,2013-02-12 00:30:00,
2013-02-11 19:35:00,44.2,44.2,29.60,SSW,195,0.0,1.0,100,0.00,,---,0.22,VWS V14.00,2013-02-12 00:35:00,
2013-02-11 19:40:00,44.1,44.1,29.60,SSW,203,0.0,1.0,100,0.00,,---,0.22,VWS V14.00,2013-02-12 00:40:00,
2013-02-11 19:45:00,44.1,44.1,29.60,SW,226,0.0,2.0,100,0.00,,---,0.22,VWS V14.00,2013-02-12 00:45:00,
2013-02-11 19:50:00,43.8,43.8,29.59,SW,236,0.0,2.0,100,0.00,,---,0.22,VWS V14.00,2013-02-12 00:50:00,
2013-02-11 19:55:00,43.9,43.9,29.59,SW,234,0.0,2.0,100,0.00,,---,0.22,VWS V14.00,2013-02-12 00:55:00,
2013-02-11 20:00:00,43.9,43.9,29.59,SW,236,0.0,2.0,100,0.00,,---,0.22,VWS V14.00,2013-02-12 01:00:00,
2013-02-11 20:05:00,43.9,43.9,29.59,SW,233,0.0,1.0,100,0.00,,---,0.22,VWS V14.00,2013-02-12 01:05:00,
2013-02-11 20:11:00,43.9,43.9,29.59,SW,230,0.0,2.0,100,0.00,,---,0.22,VWS V14.00,2013-02-12 01:11:00,
2013-02-11 20:16:00,44.1,44.1,29.59,WSW,240,0.0,6.0,100,0.00,,---,0.22,VWS V14.00,2013-02-12 01:16:00,
2013-02-11 20:21:00,43.9,43.9,29.58,WSW,247,0.0,6.0,100,0.00,,---,0.22,VWS V14.00,2013-02-12 01:21:00,
2013-02-11 20:26:00,43.8,43.8,29.58,WSW,247,0.0,6.0,100,0.00,,---,0.22,VWS V14.00,2013-02-12 01:26:00,
2013-02-11 20:31:00,43.6,43.6,29.58,SE,143,0.0,6.0,100,0.00,,---,0.22,VWS V14.00,2013-02-12 01:31:00,
2013-02-11 20:36:00,43.3,43.3,29.58,SSE,155,0.0,3.0,100,0.00,,---,0.22,VWS V14.00,2013-02-12 01:36:00,
2013-02-11 20:41:00,43.6,43.6,29.58,SSW,193,0.0,4.0,100,0.00,,---,0.22,VWS V14.00,2013-02-12 01:41:00,
2013-02-11 20:46:00,43.8,43.8,29.57,SSW,192,0.0,5.0,100,0.00,,---,0.22,VWS V14.00,2013-02-12 01:46:00,
2013-02-11 20:51:00,43.6,43.6,29.57,SSW,205,0.0,5.0,100,0.00,,---,0.22,VWS V14.00,2013-02-12 01:51:00,
2013-02-11 20:56:00,43.3,43.3,29.57,SW,224,0.0,5.0,100,0.00,,---,0.22,VWS V14.00,2013-02-12 01:56:00,
2013-02-11 21:01:00,43.2,43.2,29.57,SSW,199,0.0,5.0,100,0.00,,---,0.22,VWS V14.00,2013-02-12 02:01:00,
2013-02-11 21:06:00,43.5,43.5,29.57,SW,217,0.0,6.0,100,0.00,,---,0.22,VWS V14.00,2013-02-12 02:06:00,
2013-02-11 21:11:00,43.8,43.8,29.57,NW,306,7.0,7.0,100,0.00,,---,0.22,VWS V14.00,2013-02-12 02:11:00,
2013-02-11 21:16:00,43.9,43.9,29.56,NW,320,0.0,7.0,100,0.00,,---,0.22,VWS V14.00,2013-02-12 02:16:00,
2013-02-11 21:21:00,43.8,43.8,29.56,SW,219,0.0,7.0,100,0.00,,---,0.22,VWS V14.00,2013-02-12 02:21:00,
2013-02-11 21:26:00,43.9,43.9,29.56,SW,226,0.0,7.0,100,0.00,,---,0.22,VWS V14.00,2013-02-12 02:26:00,
2013-02-11 21:31:00,43.8,43.8,29.56,WSW,243,0.0,7.0,100,0.00,,---,0.22,VWS V14.00,2013-02-12 02:31:00,
2013-02-11 21:36:00,43.8,43.8,29.56,WSW,241,0.0,3.0,100,0.00,,---,0.22,VWS V14.00,2013-02-12 02:36:00,
2013-02-11 21:41:00,43.8,43.8,29.56,WNW,299,2.0,3.0,100,0.00,,---,0.22,VWS V14.00,2013-02-12 02:41:00,
2013-02-11 21:46:00,44.1,44.1,29.56,WNW,298,0.0,3.0,100,0.00,,---,0.22,VWS V14.00,2013-02-12 02:46:00,
2013-02-11 21:51:00,43.9,43.9,29.56,NW,318,0.0,3.0,100,0.00,,---,0.22,VWS V14.00,2013-02-12 02:51:00,
2013-02-11 21:56:00,43.9,43.9,29.56,NW,318,0.0,3.0,100,0.00,,---,0.22,VWS V14.00,2013-02-12 02:56:00,
2013-02-11 22:01:00,43.8,43.8,29.55,NW,318,0.0,3.0,100,0.00,,---,0.22,VWS V14.00,2013-02-12 03:01:00,
2013-02-11 22:06:00,43.6,43.6,29.55,NW,318,0.0,1.0,100,0.00,,---,0.22,VWS V14.00,2013-02-12 03:06:00,
2013-02-11 22:11:00,43.8,43.8,29.55,West,264,0.0,2.0,100,0.00,,---,0.22,VWS V14.00,2013-02-12 03:11:00,
2013-02-11 22:16:00,43.8,43.8,29.54,West,268,1.0,2.0,100,0.00,,---,0.22,VWS V14.00,2013-02-12 03:16:00,
2013-02-11 22:21:00,43.6,43.6,29.54,WSW,258,0.0,5.0,100,0.00,,---,0.22,VWS V14.00,2013-02-12 03:21:00,
2013-02-11 22:26:00,43.3,43.3,29.54,WSW,257,0.0,5.0,100,0.00,,---,0.22,VWS V14.00,2013-02-12 03:26:00,
2013-02-11 22:31:00,43.5,43.5,29.54,NW,304,0.0,6.0,100,0.00,,---,0.22,VWS V14.00,2013-02-12 03:31:00,
2013-02-11 22:36:00,43.5,43.5,29.54,WNW,295,0.0,1.0,100,0.00,,---,0.22,VWS V14.00,2013-02-12 03:36:00,
2013-02-11 22:41:00,43.8,43.8,29.54,NW,316,0.0,4.0,100,0.00,,---,0.22,VWS V14.00,2013-02-12 03:41:00,
2013-02-11 22:46:00,43.8,43.8,29.54,SW,229,0.0,6.0,100,0.00,,---,0.22,VWS V14.00,2013-02-12 03:46:00,
2013-02-11 22:51:00,43.6,43.6,29.54,ENE,71,0.0,6.0,100,0.00,,---,0.22,VWS V14.00,2013-02-12 03:51:00,
2013-02-11 22:56:00,43.5,43.5,29.54,North,0,0.0,6.0,100,0.00,,---,0.22,VWS V14.00,2013-02-12 03:56:00,
2013-02-11 23:01:00,43.5,43.5,29.54,NW,325,0.0,6.0,100,0.00,,---,0.22,VWS V14.00,2013-02-12 04:01:00,
2013-02-11 23:06:00,43.1,43.1,29.54,North,349,0.0,3.0,100,0.00,,---,0.22,VWS V14.00,2013-02-12 04:06:00,
2013-02-11 23:11:00,43.1,43.1,29.54,SSW,209,0.0,3.0,100,0.00,,---,0.22,VWS V14.00,2013-02-12 04:11:00,
2013-02-11 23:16:00,42.9,42.9,29.54,SSW,210,0.0,3.0,100,0.00,,---,0.22,VWS V14.00,2013-02-12 04:16:00,
2013-02-11 23:21:00,42.9,42.9,29.54,SW,223,0.0,6.0,100,0.00,,---,0.22,VWS V14.00,2013-02-12 04:21:00,
2013-02-11 23:26:00,42.5,42.5,29.54,SW,223,0.0,6.0,100,0.00,,---,0.22,VWS V14.00,2013-02-12 04:26:00,
2013-02-11 23:31:00,42.2,42.2,29.55,SW,232,0.0,6.0,100,0.00,,---,0.22,VWS V14.00,2013-02-12 04:31:00,
2013-02-11 23:36:00,41.9,41.9,29.55,WNW,295,0.0,1.0,100,0.00,,---,0.22,VWS V14.00,2013-02-12 04:36:00,
2013-02-11 23:41:00,41.8,41.8,29.55,WSW,250,0.0,2.0,100,0.00,,---,0.22,VWS V14.00,2013-02-12 04:41:00,
2013-02-11 23:46:00,41.6,41.6,29.55,WSW,250,0.0,2.0,100,0.00,,---,0.22,VWS V14.00,2013-02-12 04:46:00,
2013-02-11 23:51:00,41.6,41.6,29.55,SW,226,0.0,2.0,100,0.00,,---,0.22,VWS V14.00,2013-02-12 04:51:00,
2013-02-11 23:56:00,41.3,41.3,29.55,NW,304,0.0,2.0,100,0.00,,---,0.22,VWS V14.00,2013-02-12 04:56:00,